<?xml version="1.0" encoding="UTF-8" standalone="no" ?>
<gpx xmlns="http://www.topografix.com/GPX/1/1" xmlns:xsi="http://www.w3.org/2001/XMLSchema-instance" xsi:schemaLocation="http://www.topografix.com/GPX/1/1 http://www.topografix.com/GPX/1/1/gpx.xsd" version="1.1" creator="VisuGPX - https://www.visugpx.com">
  <metadata>
    <name>Mardi 26 Octobre 2010</name>
    <desc><![CDATA[Mardi 26 Octobre 2010]]></desc>
  </metadata>
  <trk>
    <name><![CDATA[ACTIVE LOG 001]]></name>
    <trkseg>
      <trkpt lat="47.17715" lon="-1.62227">
        <ele>23.2089844</ele>
        <time>2010-10-26T16:00:56Z</time>
      </trkpt>
      <trkpt lat="47.17717" lon="-1.62277">
        <ele>21.7669678</ele>
        <time>2010-10-26T16:04:38Z</time>
      </trkpt>
      <trkpt lat="47.17754" lon="-1.62306">
        <ele>19.8443604</ele>
        <time>2010-10-26T16:04:59Z</time>
      </trkpt>
      <trkpt lat="47.17797" lon="-1.62323">
        <ele>22.7282715</ele>
        <time>2010-10-26T16:05:13Z</time>
      </trkpt>
      <trkpt lat="47.1784" lon="-1.6235">
        <ele>24.1702881</ele>
        <time>2010-10-26T16:05:27Z</time>
      </trkpt>
      <trkpt lat="47.17878" lon="-1.62327">
        <ele>22.7282715</ele>
        <time>2010-10-26T16:05:40Z</time>
      </trkpt>
      <trkpt lat="47.17922" lon="-1.62331">
        <ele>24.1702881</ele>
        <time>2010-10-26T16:05:54Z</time>
      </trkpt>
      <trkpt lat="47.17968" lon="-1.62335">
        <ele>24.1702881</ele>
        <time>2010-10-26T16:06:11Z</time>
      </trkpt>
      <trkpt lat="47.18016" lon="-1.62336">
        <ele>22.7282715</ele>
        <time>2010-10-26T16:06:24Z</time>
      </trkpt>
      <trkpt lat="47.18067" lon="-1.62319">
        <ele>14.076416</ele>
        <time>2010-10-26T16:06:31Z</time>
      </trkpt>
      <trkpt lat="47.18085" lon="-1.62278">
        <ele>5.9052734</ele>
        <time>2010-10-26T16:06:48Z</time>
      </trkpt>
      <trkpt lat="47.18076" lon="-1.62221">
        <ele>3.982666</ele>
        <time>2010-10-26T16:07:06Z</time>
      </trkpt>
      <trkpt lat="47.1811" lon="-1.62193">
        <ele>3.0212402</ele>
        <time>2010-10-26T16:07:17Z</time>
      </trkpt>
      <trkpt lat="47.18138" lon="-1.62245">
        <ele>3.5019531</ele>
        <time>2010-10-26T16:07:28Z</time>
      </trkpt>
      <trkpt lat="47.18148" lon="-1.62302">
        <ele>3.0212402</ele>
        <time>2010-10-26T16:07:40Z</time>
      </trkpt>
      <trkpt lat="47.18168" lon="-1.62363">
        <ele>1.0986328</ele>
        <time>2010-10-26T16:07:50Z</time>
      </trkpt>
      <trkpt lat="47.18195" lon="-1.62418">
        <ele>1.0986328</ele>
        <time>2010-10-26T16:07:58Z</time>
      </trkpt>
      <trkpt lat="47.18224" lon="-1.62468">
        <ele>1.5793457</ele>
        <time>2010-10-26T16:08:08Z</time>
      </trkpt>
      <trkpt lat="47.18266" lon="-1.62463">
        <ele>1.0986328</ele>
        <time>2010-10-26T16:08:18Z</time>
      </trkpt>
      <trkpt lat="47.18309" lon="-1.62429">
        <ele>1.0986328</ele>
        <time>2010-10-26T16:08:28Z</time>
      </trkpt>
      <trkpt lat="47.18345" lon="-1.62382">
        <ele>1.5793457</ele>
        <time>2010-10-26T16:08:38Z</time>
      </trkpt>
      <trkpt lat="47.18389" lon="-1.62362">
        <ele>2.0600586</ele>
        <time>2010-10-26T16:08:47Z</time>
      </trkpt>
      <trkpt lat="47.18417" lon="-1.62312">
        <ele>1.5793457</ele>
        <time>2010-10-26T16:08:57Z</time>
      </trkpt>
      <trkpt lat="47.18443" lon="-1.62341">
        <ele>2.5406494</ele>
        <time>2010-10-26T16:09:11Z</time>
      </trkpt>
      <trkpt lat="47.18478" lon="-1.62371">
        <ele>2.5406494</ele>
        <time>2010-10-26T16:09:22Z</time>
      </trkpt>
      <trkpt lat="47.18479" lon="-1.62438">
        <ele>2.0600586</ele>
        <time>2010-10-26T16:09:33Z</time>
      </trkpt>
      <trkpt lat="47.18476" lon="-1.62506">
        <ele>1.5793457</ele>
        <time>2010-10-26T16:09:43Z</time>
      </trkpt>
      <trkpt lat="47.18473" lon="-1.62576">
        <ele>1.5793457</ele>
        <time>2010-10-26T16:09:53Z</time>
      </trkpt>
      <trkpt lat="47.18469" lon="-1.62646">
        <ele>0.618042</ele>
        <time>2010-10-26T16:10:03Z</time>
      </trkpt>
      <trkpt lat="47.18463" lon="-1.62717">
        <ele>0.618042</ele>
        <time>2010-10-26T16:10:13Z</time>
      </trkpt>
      <trkpt lat="47.18457" lon="-1.62784">
        <ele>0.618042</ele>
        <time>2010-10-26T16:10:23Z</time>
      </trkpt>
      <trkpt lat="47.18455" lon="-1.62851">
        <ele>0.1374512</ele>
        <time>2010-10-26T16:10:33Z</time>
      </trkpt>
      <trkpt lat="47.18454" lon="-1.62923">
        <ele>0.1374512</ele>
        <time>2010-10-26T16:10:44Z</time>
      </trkpt>
      <trkpt lat="47.18466" lon="-1.62989">
        <ele>0.618042</ele>
        <time>2010-10-26T16:10:55Z</time>
      </trkpt>
      <trkpt lat="47.18495" lon="-1.63042">
        <ele>0.618042</ele>
        <time>2010-10-26T16:11:05Z</time>
      </trkpt>
      <trkpt lat="47.1853" lon="-1.63084">
        <ele>1.5793457</ele>
        <time>2010-10-26T16:11:16Z</time>
      </trkpt>
      <trkpt lat="47.18539" lon="-1.63143">
        <ele>1.0986328</ele>
        <time>2010-10-26T16:11:27Z</time>
      </trkpt>
      <trkpt lat="47.18561" lon="-1.63194">
        <ele>0.618042</ele>
        <time>2010-10-26T16:11:41Z</time>
      </trkpt>
      <trkpt lat="47.18576" lon="-1.63251">
        <ele>1.5793457</ele>
        <time>2010-10-26T16:11:52Z</time>
      </trkpt>
      <trkpt lat="47.18608" lon="-1.63303">
        <ele>1.5793457</ele>
        <time>2010-10-26T16:12:03Z</time>
      </trkpt>
      <trkpt lat="47.18635" lon="-1.63359">
        <ele>1.0986328</ele>
        <time>2010-10-26T16:12:14Z</time>
      </trkpt>
      <trkpt lat="47.18661" lon="-1.63418">
        <ele>1.0986328</ele>
        <time>2010-10-26T16:12:27Z</time>
      </trkpt>
      <trkpt lat="47.18694" lon="-1.63466">
        <ele>1.0986328</ele>
        <time>2010-10-26T16:12:39Z</time>
      </trkpt>
      <trkpt lat="47.18722" lon="-1.63522">
        <ele>1.5793457</ele>
        <time>2010-10-26T16:12:50Z</time>
      </trkpt>
      <trkpt lat="47.18745" lon="-1.63579">
        <ele>1.0986328</ele>
        <time>2010-10-26T16:13:00Z</time>
      </trkpt>
      <trkpt lat="47.18769" lon="-1.63639">
        <ele>1.5793457</ele>
        <time>2010-10-26T16:13:10Z</time>
      </trkpt>
      <trkpt lat="47.18793" lon="-1.63703">
        <ele>2.0600586</ele>
        <time>2010-10-26T16:13:20Z</time>
      </trkpt>
      <trkpt lat="47.18815" lon="-1.63763">
        <ele>1.0986328</ele>
        <time>2010-10-26T16:13:29Z</time>
      </trkpt>
      <trkpt lat="47.18842" lon="-1.63826">
        <ele>1.0986328</ele>
        <time>2010-10-26T16:13:39Z</time>
      </trkpt>
      <trkpt lat="47.18869" lon="-1.63881">
        <ele>1.0986328</ele>
        <time>2010-10-26T16:13:48Z</time>
      </trkpt>
      <trkpt lat="47.18902" lon="-1.63931">
        <ele>0.618042</ele>
        <time>2010-10-26T16:13:57Z</time>
      </trkpt>
      <trkpt lat="47.18933" lon="-1.63981">
        <ele>1.0986328</ele>
        <time>2010-10-26T16:14:06Z</time>
      </trkpt>
      <trkpt lat="47.18964" lon="-1.64035">
        <ele>1.5793457</ele>
        <time>2010-10-26T16:14:15Z</time>
      </trkpt>
      <trkpt lat="47.18996" lon="-1.64089">
        <ele>1.5793457</ele>
        <time>2010-10-26T16:14:24Z</time>
      </trkpt>
      <trkpt lat="47.19028" lon="-1.64138">
        <ele>2.0600586</ele>
        <time>2010-10-26T16:14:33Z</time>
      </trkpt>
      <trkpt lat="47.1905" lon="-1.64198">
        <ele>1.5793457</ele>
        <time>2010-10-26T16:14:43Z</time>
      </trkpt>
      <trkpt lat="47.19036" lon="-1.64264">
        <ele>0.618042</ele>
        <time>2010-10-26T16:14:53Z</time>
      </trkpt>
      <trkpt lat="47.19047" lon="-1.64314">
        <ele>0.618042</ele>
        <time>2010-10-26T16:15:08Z</time>
      </trkpt>
      <trkpt lat="47.1906" lon="-1.64364">
        <ele>3.5019531</ele>
        <time>2010-10-26T16:15:22Z</time>
      </trkpt>
      <trkpt lat="47.19042" lon="-1.64422">
        <ele>5.9052734</ele>
        <time>2010-10-26T16:15:32Z</time>
      </trkpt>
      <trkpt lat="47.19004" lon="-1.64445">
        <ele>7.347168</ele>
        <time>2010-10-26T16:15:41Z</time>
      </trkpt>
      <trkpt lat="47.18995" lon="-1.64515">
        <ele>6.8664551</ele>
        <time>2010-10-26T16:15:50Z</time>
      </trkpt>
      <trkpt lat="47.18997" lon="-1.64584">
        <ele>4.9438477</ele>
        <time>2010-10-26T16:16:01Z</time>
      </trkpt>
      <trkpt lat="47.19012" lon="-1.64651">
        <ele>3.5019531</ele>
        <time>2010-10-26T16:16:13Z</time>
      </trkpt>
      <trkpt lat="47.19006" lon="-1.64717">
        <ele>2.0600586</ele>
        <time>2010-10-26T16:16:22Z</time>
      </trkpt>
      <trkpt lat="47.19022" lon="-1.64781">
        <ele>0.618042</ele>
        <time>2010-10-26T16:16:33Z</time>
      </trkpt>
      <trkpt lat="47.19019" lon="-1.64848">
        <ele>-0.3433838</ele>
        <time>2010-10-26T16:16:42Z</time>
      </trkpt>
      <trkpt lat="47.19011" lon="-1.64915">
        <ele>1.0986328</ele>
        <time>2010-10-26T16:16:52Z</time>
      </trkpt>
      <trkpt lat="47.19" lon="-1.64981">
        <ele>0.618042</ele>
        <time>2010-10-26T16:17:02Z</time>
      </trkpt>
      <trkpt lat="47.19012" lon="-1.65045">
        <ele>-2.2659912</ele>
        <time>2010-10-26T16:17:12Z</time>
      </trkpt>
      <trkpt lat="47.19016" lon="-1.65109">
        <ele>-1.3046875</ele>
        <time>2010-10-26T16:17:22Z</time>
      </trkpt>
      <trkpt lat="47.19009" lon="-1.65171">
        <ele>-1.7852783</ele>
        <time>2010-10-26T16:17:34Z</time>
      </trkpt>
      <trkpt lat="47.19019" lon="-1.65239">
        <ele>-1.3046875</ele>
        <time>2010-10-26T16:17:46Z</time>
      </trkpt>
      <trkpt lat="47.18983" lon="-1.65273">
        <ele>1.5793457</ele>
        <time>2010-10-26T16:18:17Z</time>
      </trkpt>
      <trkpt lat="47.18936" lon="-1.65258">
        <ele>-0.3433838</ele>
        <time>2010-10-26T16:18:25Z</time>
      </trkpt>
      <trkpt lat="47.18891" lon="-1.65236">
        <ele>-2.2659912</ele>
        <time>2010-10-26T16:18:32Z</time>
      </trkpt>
      <trkpt lat="47.18844" lon="-1.65206">
        <ele>-2.2659912</ele>
        <time>2010-10-26T16:18:40Z</time>
      </trkpt>
      <trkpt lat="47.18801" lon="-1.65171">
        <ele>-2.2659912</ele>
        <time>2010-10-26T16:18:47Z</time>
      </trkpt>
      <trkpt lat="47.18759" lon="-1.65138">
        <ele>-3.7078857</ele>
        <time>2010-10-26T16:18:54Z</time>
      </trkpt>
      <trkpt lat="47.1871" lon="-1.65116">
        <ele>-3.2272949</ele>
        <time>2010-10-26T16:19:01Z</time>
      </trkpt>
      <trkpt lat="47.18662" lon="-1.65095">
        <ele>-2.7467041</ele>
        <time>2010-10-26T16:19:08Z</time>
      </trkpt>
      <trkpt lat="47.18617" lon="-1.65078">
        <ele>-2.7467041</ele>
        <time>2010-10-26T16:19:15Z</time>
      </trkpt>
      <trkpt lat="47.18569" lon="-1.65058">
        <ele>-2.2659912</ele>
        <time>2010-10-26T16:19:23Z</time>
      </trkpt>
      <trkpt lat="47.18523" lon="-1.65019">
        <ele>-2.7467041</ele>
        <time>2010-10-26T16:19:31Z</time>
      </trkpt>
      <trkpt lat="47.18481" lon="-1.6498">
        <ele>-1.3046875</ele>
        <time>2010-10-26T16:19:38Z</time>
      </trkpt>
      <trkpt lat="47.18441" lon="-1.64936">
        <ele>0.618042</ele>
        <time>2010-10-26T16:19:46Z</time>
      </trkpt>
      <trkpt lat="47.18415" lon="-1.64894">
        <ele>1.5793457</ele>
        <time>2010-10-26T16:20:07Z</time>
      </trkpt>
      <trkpt lat="47.18403" lon="-1.64954">
        <ele>2.0600586</ele>
        <time>2010-10-26T16:20:40Z</time>
      </trkpt>
      <trkpt lat="47.18377" lon="-1.65013">
        <ele>4.4632568</ele>
        <time>2010-10-26T16:21:12Z</time>
      </trkpt>
      <trkpt lat="47.18381" lon="-1.65073">
        <ele>4.4632568</ele>
        <time>2010-10-26T16:21:25Z</time>
      </trkpt>
      <trkpt lat="47.18417" lon="-1.65111">
        <ele>6.3858643</ele>
        <time>2010-10-26T16:21:36Z</time>
      </trkpt>
      <trkpt lat="47.18416" lon="-1.65172">
        <ele>5.9052734</ele>
        <time>2010-10-26T16:21:47Z</time>
      </trkpt>
      <trkpt lat="47.18372" lon="-1.65197">
        <ele>7.347168</ele>
        <time>2010-10-26T16:21:57Z</time>
      </trkpt>
      <trkpt lat="47.18331" lon="-1.65214">
        <ele>8.3085938</ele>
        <time>2010-10-26T16:22:13Z</time>
      </trkpt>
      <trkpt lat="47.18328" lon="-1.65277">
        <ele>6.3858643</ele>
        <time>2010-10-26T16:22:23Z</time>
      </trkpt>
      <trkpt lat="47.18344" lon="-1.65347">
        <ele>5.9052734</ele>
        <time>2010-10-26T16:22:33Z</time>
      </trkpt>
      <trkpt lat="47.18356" lon="-1.6541">
        <ele>3.982666</ele>
        <time>2010-10-26T16:22:42Z</time>
      </trkpt>
      <trkpt lat="47.18384" lon="-1.65463">
        <ele>3.5019531</ele>
        <time>2010-10-26T16:22:52Z</time>
      </trkpt>
      <trkpt lat="47.1843" lon="-1.6545">
        <ele>3.5019531</ele>
        <time>2010-10-26T16:23:02Z</time>
      </trkpt>
      <trkpt lat="47.18461" lon="-1.65408">
        <ele>2.5406494</ele>
        <time>2010-10-26T16:23:11Z</time>
      </trkpt>
      <trkpt lat="47.18457" lon="-1.65337">
        <ele>2.0600586</ele>
        <time>2010-10-26T16:23:20Z</time>
      </trkpt>
      <trkpt lat="47.18419" lon="-1.65296">
        <ele>3.0212402</ele>
        <time>2010-10-26T16:23:30Z</time>
      </trkpt>
      <trkpt lat="47.18414" lon="-1.65229">
        <ele>5.9052734</ele>
        <time>2010-10-26T16:23:44Z</time>
      </trkpt>
      <trkpt lat="47.18422" lon="-1.65175">
        <ele>0.618042</ele>
        <time>2010-10-26T16:23:58Z</time>
      </trkpt>
      <trkpt lat="47.18448" lon="-1.65226">
        <ele>2.0600586</ele>
        <time>2010-10-26T16:24:16Z</time>
      </trkpt>
      <trkpt lat="47.18457" lon="-1.65291">
        <ele>2.5406494</ele>
        <time>2010-10-26T16:24:59Z</time>
      </trkpt>
      <trkpt lat="47.1846" lon="-1.65356">
        <ele>3.5019531</ele>
        <time>2010-10-26T16:25:11Z</time>
      </trkpt>
      <trkpt lat="47.18477" lon="-1.65421">
        <ele>3.982666</ele>
        <time>2010-10-26T16:25:22Z</time>
      </trkpt>
      <trkpt lat="47.1851" lon="-1.65467">
        <ele>3.0212402</ele>
        <time>2010-10-26T16:25:31Z</time>
      </trkpt>
      <trkpt lat="47.18551" lon="-1.65509">
        <ele>1.5793457</ele>
        <time>2010-10-26T16:25:39Z</time>
      </trkpt>
      <trkpt lat="47.18554" lon="-1.65552">
        <ele>2.0600586</ele>
        <time>2010-10-26T16:25:50Z</time>
      </trkpt>
      <trkpt lat="47.18538" lon="-1.65591">
        <ele>3.0212402</ele>
        <time>2010-10-26T16:26:03Z</time>
      </trkpt>
      <trkpt lat="47.1855" lon="-1.65656">
        <ele>3.0212402</ele>
        <time>2010-10-26T16:26:16Z</time>
      </trkpt>
      <trkpt lat="47.18579" lon="-1.65708">
        <ele>3.0212402</ele>
        <time>2010-10-26T16:26:30Z</time>
      </trkpt>
      <trkpt lat="47.18617" lon="-1.65746">
        <ele>4.9438477</ele>
        <time>2010-10-26T16:26:45Z</time>
      </trkpt>
      <trkpt lat="47.18649" lon="-1.65795">
        <ele>6.8664551</ele>
        <time>2010-10-26T16:26:58Z</time>
      </trkpt>
      <trkpt lat="47.18687" lon="-1.65842">
        <ele>7.8278809</ele>
        <time>2010-10-26T16:27:11Z</time>
      </trkpt>
      <trkpt lat="47.18714" lon="-1.65901">
        <ele>7.347168</ele>
        <time>2010-10-26T16:27:22Z</time>
      </trkpt>
      <trkpt lat="47.18722" lon="-1.65973">
        <ele>6.8664551</ele>
        <time>2010-10-26T16:27:34Z</time>
      </trkpt>
      <trkpt lat="47.18754" lon="-1.66025">
        <ele>6.3858643</ele>
        <time>2010-10-26T16:27:44Z</time>
      </trkpt>
      <trkpt lat="47.18761" lon="-1.66094">
        <ele>3.5019531</ele>
        <time>2010-10-26T16:27:54Z</time>
      </trkpt>
      <trkpt lat="47.18776" lon="-1.66156">
        <ele>1.0986328</ele>
        <time>2010-10-26T16:28:12Z</time>
      </trkpt>
      <trkpt lat="47.18763" lon="-1.66227">
        <ele>3.0212402</ele>
        <time>2010-10-26T16:29:03Z</time>
      </trkpt>
      <trkpt lat="47.18776" lon="-1.66298">
        <ele>9.7506104</ele>
        <time>2010-10-26T16:30:01Z</time>
      </trkpt>
      <trkpt lat="47.18781" lon="-1.66371">
        <ele>5.4245605</ele>
        <time>2010-10-26T16:30:17Z</time>
      </trkpt>
      <trkpt lat="47.18753" lon="-1.66435">
        <ele>1.5793457</ele>
        <time>2010-10-26T16:30:32Z</time>
      </trkpt>
      <trkpt lat="47.18768" lon="-1.66504">
        <ele>0.1374512</ele>
        <time>2010-10-26T16:30:41Z</time>
      </trkpt>
      <trkpt lat="47.18777" lon="-1.66558">
        <ele>1.5793457</ele>
        <time>2010-10-26T16:31:02Z</time>
      </trkpt>
      <trkpt lat="47.18784" lon="-1.66624">
        <ele>0.618042</ele>
        <time>2010-10-26T16:31:19Z</time>
      </trkpt>
      <trkpt lat="47.18777" lon="-1.6658">
        <ele>2.0600586</ele>
        <time>2010-10-26T16:32:35Z</time>
      </trkpt>
      <trkpt lat="47.1875" lon="-1.66547">
        <ele>3.982666</ele>
        <time>2010-10-26T16:32:50Z</time>
      </trkpt>
      <trkpt lat="47.18709" lon="-1.66578">
        <ele>11.6732178</ele>
        <time>2010-10-26T16:33:09Z</time>
      </trkpt>
      <trkpt lat="47.18665" lon="-1.66624">
        <ele>11.6732178</ele>
        <time>2010-10-26T16:33:31Z</time>
      </trkpt>
      <trkpt lat="47.18631" lon="-1.66703">
        <ele>15.0377197</ele>
        <time>2010-10-26T16:34:02Z</time>
      </trkpt>
      <trkpt lat="47.18592" lon="-1.66777">
        <ele>8.3085938</ele>
        <time>2010-10-26T16:34:33Z</time>
      </trkpt>
      <trkpt lat="47.1854" lon="-1.66819">
        <ele>15.5184326</ele>
        <time>2010-10-26T16:34:58Z</time>
      </trkpt>
      <trkpt lat="47.18498" lon="-1.66868">
        <ele>20.8056641</ele>
        <time>2010-10-26T16:35:23Z</time>
      </trkpt>
      <trkpt lat="47.18457" lon="-1.66904">
        <ele>24.1702881</ele>
        <time>2010-10-26T16:35:45Z</time>
      </trkpt>
      <trkpt lat="47.18455" lon="-1.66956">
        <ele>27.5349121</ele>
        <time>2010-10-26T16:36:14Z</time>
      </trkpt>
      <trkpt lat="47.18498" lon="-1.66931">
        <ele>25.6123047</ele>
        <time>2010-10-26T16:36:26Z</time>
      </trkpt>
      <trkpt lat="47.18541" lon="-1.66899">
        <ele>22.7282715</ele>
        <time>2010-10-26T16:36:34Z</time>
      </trkpt>
      <trkpt lat="47.18583" lon="-1.66874">
        <ele>20.3249512</ele>
        <time>2010-10-26T16:36:40Z</time>
      </trkpt>
      <trkpt lat="47.18629" lon="-1.66846">
        <ele>18.8830566</ele>
        <time>2010-10-26T16:36:46Z</time>
      </trkpt>
      <trkpt lat="47.18676" lon="-1.66811">
        <ele>16.9604492</ele>
        <time>2010-10-26T16:36:53Z</time>
      </trkpt>
      <trkpt lat="47.18724" lon="-1.66795">
        <ele>13.5958252</ele>
        <time>2010-10-26T16:36:59Z</time>
      </trkpt>
      <trkpt lat="47.18762" lon="-1.66761">
        <ele>7.8278809</ele>
        <time>2010-10-26T16:37:09Z</time>
      </trkpt>
      <trkpt lat="47.18803" lon="-1.66751">
        <ele>2.0600586</ele>
        <time>2010-10-26T16:37:28Z</time>
      </trkpt>
      <trkpt lat="47.18818" lon="-1.66816">
        <ele>0.618042</ele>
        <time>2010-10-26T16:37:39Z</time>
      </trkpt>
      <trkpt lat="47.18832" lon="-1.66881">
        <ele>1.5793457</ele>
        <time>2010-10-26T16:37:52Z</time>
      </trkpt>
      <trkpt lat="47.18844" lon="-1.66946">
        <ele>-0.3433838</ele>
        <time>2010-10-26T16:38:04Z</time>
      </trkpt>
      <trkpt lat="47.18856" lon="-1.67015">
        <ele>-5.6304932</ele>
        <time>2010-10-26T16:38:17Z</time>
      </trkpt>
      <trkpt lat="47.18864" lon="-1.67086">
        <ele>-3.7078857</ele>
        <time>2010-10-26T16:38:34Z</time>
      </trkpt>
      <trkpt lat="47.18864" lon="-1.67149">
        <ele>2.5406494</ele>
        <time>2010-10-26T16:39:04Z</time>
      </trkpt>
      <trkpt lat="47.18863" lon="-1.67243">
        <ele>25.6123047</ele>
        <time>2010-10-26T16:40:30Z</time>
      </trkpt>
      <trkpt lat="47.18874" lon="-1.67334">
        <ele>28.0155029</ele>
        <time>2010-10-26T16:41:23Z</time>
      </trkpt>
      <trkpt lat="47.18894" lon="-1.67404">
        <ele>24.1702881</ele>
        <time>2010-10-26T16:41:47Z</time>
      </trkpt>
      <trkpt lat="47.18917" lon="-1.67463">
        <ele>24.1702881</ele>
        <time>2010-10-26T16:42:08Z</time>
      </trkpt>
      <trkpt lat="47.18915" lon="-1.67534">
        <ele>23.6895752</ele>
        <time>2010-10-26T16:42:29Z</time>
      </trkpt>
      <trkpt lat="47.18933" lon="-1.67592">
        <ele>23.2089844</ele>
        <time>2010-10-26T16:42:50Z</time>
      </trkpt>
      <trkpt lat="47.18933" lon="-1.67664">
        <ele>13.5958252</ele>
        <time>2010-10-26T16:43:41Z</time>
      </trkpt>
      <trkpt lat="47.18912" lon="-1.67722">
        <ele>21.286377</ele>
        <time>2010-10-26T16:44:02Z</time>
      </trkpt>
      <trkpt lat="47.18912" lon="-1.67784">
        <ele>25.6123047</ele>
        <time>2010-10-26T16:45:25Z</time>
      </trkpt>
      <trkpt lat="47.18918" lon="-1.67852">
        <ele>23.6895752</ele>
        <time>2010-10-26T16:45:34Z</time>
      </trkpt>
      <trkpt lat="47.18949" lon="-1.67876">
        <ele>22.7282715</ele>
        <time>2010-10-26T16:45:44Z</time>
      </trkpt>
      <trkpt lat="47.18982" lon="-1.67924">
        <ele>22.2475586</ele>
        <time>2010-10-26T16:45:53Z</time>
      </trkpt>
      <trkpt lat="47.18984" lon="-1.67986">
        <ele>23.6895752</ele>
        <time>2010-10-26T16:46:05Z</time>
      </trkpt>
      <trkpt lat="47.19014" lon="-1.6802">
        <ele>23.2089844</ele>
        <time>2010-10-26T16:46:16Z</time>
      </trkpt>
      <trkpt lat="47.19061" lon="-1.68029">
        <ele>19.8443604</ele>
        <time>2010-10-26T16:46:23Z</time>
      </trkpt>
      <trkpt lat="47.19095" lon="-1.68076">
        <ele>19.8443604</ele>
        <time>2010-10-26T16:46:31Z</time>
      </trkpt>
      <trkpt lat="47.19114" lon="-1.6814">
        <ele>21.7669678</ele>
        <time>2010-10-26T16:46:41Z</time>
      </trkpt>
      <trkpt lat="47.19118" lon="-1.68206">
        <ele>20.3249512</ele>
        <time>2010-10-26T16:46:50Z</time>
      </trkpt>
      <trkpt lat="47.19137" lon="-1.68261">
        <ele>20.8056641</ele>
        <time>2010-10-26T16:46:58Z</time>
      </trkpt>
      <trkpt lat="47.19155" lon="-1.68321">
        <ele>22.2475586</ele>
        <time>2010-10-26T16:47:07Z</time>
      </trkpt>
      <trkpt lat="47.19156" lon="-1.6839">
        <ele>21.7669678</ele>
        <time>2010-10-26T16:47:16Z</time>
      </trkpt>
      <trkpt lat="47.19159" lon="-1.68461">
        <ele>23.2089844</ele>
        <time>2010-10-26T16:47:26Z</time>
      </trkpt>
      <trkpt lat="47.19123" lon="-1.68484">
        <ele>28.0155029</ele>
        <time>2010-10-26T16:47:45Z</time>
      </trkpt>
      <trkpt lat="47.19141" lon="-1.68546">
        <ele>29.9381104</ele>
        <time>2010-10-26T16:47:59Z</time>
      </trkpt>
      <trkpt lat="47.19161" lon="-1.68606">
        <ele>29.4575195</ele>
        <time>2010-10-26T16:48:07Z</time>
      </trkpt>
      <trkpt lat="47.1916" lon="-1.68659">
        <ele>29.9381104</ele>
        <time>2010-10-26T16:48:17Z</time>
      </trkpt>
      <trkpt lat="47.19134" lon="-1.68699">
        <ele>31.380127</ele>
        <time>2010-10-26T16:48:30Z</time>
      </trkpt>
      <trkpt lat="47.19095" lon="-1.68724">
        <ele>32.3415527</ele>
        <time>2010-10-26T16:48:43Z</time>
      </trkpt>
      <trkpt lat="47.19063" lon="-1.68762">
        <ele>31.8607178</ele>
        <time>2010-10-26T16:48:56Z</time>
      </trkpt>
      <trkpt lat="47.19022" lon="-1.68792">
        <ele>32.8222656</ele>
        <time>2010-10-26T16:49:05Z</time>
      </trkpt>
      <trkpt lat="47.1898" lon="-1.68822">
        <ele>30.8995361</ele>
        <time>2010-10-26T16:49:13Z</time>
      </trkpt>
      <trkpt lat="47.18969" lon="-1.68872">
        <ele>28.9769287</ele>
        <time>2010-10-26T16:49:24Z</time>
      </trkpt>
      <trkpt lat="47.18989" lon="-1.68937">
        <ele>28.4962158</ele>
        <time>2010-10-26T16:49:34Z</time>
      </trkpt>
      <trkpt lat="47.19" lon="-1.69002">
        <ele>28.0155029</ele>
        <time>2010-10-26T16:49:43Z</time>
      </trkpt>
      <trkpt lat="47.19016" lon="-1.69065">
        <ele>26.5736084</ele>
        <time>2010-10-26T16:49:52Z</time>
      </trkpt>
      <trkpt lat="47.19037" lon="-1.69129">
        <ele>27.5349121</ele>
        <time>2010-10-26T16:50:03Z</time>
      </trkpt>
      <trkpt lat="47.19059" lon="-1.69192">
        <ele>27.0543213</ele>
        <time>2010-10-26T16:50:13Z</time>
      </trkpt>
      <trkpt lat="47.19065" lon="-1.6926">
        <ele>25.6123047</ele>
        <time>2010-10-26T16:50:23Z</time>
      </trkpt>
      <trkpt lat="47.19069" lon="-1.69333">
        <ele>22.7282715</ele>
        <time>2010-10-26T16:50:31Z</time>
      </trkpt>
      <trkpt lat="47.1907" lon="-1.69399">
        <ele>18.4023438</ele>
        <time>2010-10-26T16:50:40Z</time>
      </trkpt>
      <trkpt lat="47.19078" lon="-1.69466">
        <ele>14.5570068</ele>
        <time>2010-10-26T16:50:49Z</time>
      </trkpt>
      <trkpt lat="47.19084" lon="-1.69533">
        <ele>9.7506104</ele>
        <time>2010-10-26T16:50:59Z</time>
      </trkpt>
      <trkpt lat="47.19057" lon="-1.69583">
        <ele>3.982666</ele>
        <time>2010-10-26T16:51:16Z</time>
      </trkpt>
      <trkpt lat="47.1906" lon="-1.69651">
        <ele>4.9438477</ele>
        <time>2010-10-26T16:51:38Z</time>
      </trkpt>
      <trkpt lat="47.19023" lon="-1.69696">
        <ele>0.618042</ele>
        <time>2010-10-26T16:51:58Z</time>
      </trkpt>
      <trkpt lat="47.18978" lon="-1.6974">
        <ele>0.618042</ele>
        <time>2010-10-26T16:52:16Z</time>
      </trkpt>
      <trkpt lat="47.18934" lon="-1.69786">
        <ele>9.7506104</ele>
        <time>2010-10-26T16:52:33Z</time>
      </trkpt>
      <trkpt lat="47.18895" lon="-1.69831">
        <ele>14.076416</ele>
        <time>2010-10-26T16:52:50Z</time>
      </trkpt>
      <trkpt lat="47.18878" lon="-1.69887">
        <ele>15.9990234</ele>
        <time>2010-10-26T16:53:09Z</time>
      </trkpt>
      <trkpt lat="47.18896" lon="-1.69952">
        <ele>14.076416</ele>
        <time>2010-10-26T16:53:18Z</time>
      </trkpt>
      <trkpt lat="47.18913" lon="-1.70014">
        <ele>11.1925049</ele>
        <time>2010-10-26T16:53:26Z</time>
      </trkpt>
      <trkpt lat="47.18872" lon="-1.70001">
        <ele>12.1538086</ele>
        <time>2010-10-26T16:53:41Z</time>
      </trkpt>
      <trkpt lat="47.1883" lon="-1.69962">
        <ele>13.5958252</ele>
        <time>2010-10-26T16:53:53Z</time>
      </trkpt>
      <trkpt lat="47.18792" lon="-1.69916">
        <ele>15.5184326</ele>
        <time>2010-10-26T16:54:05Z</time>
      </trkpt>
      <trkpt lat="47.18754" lon="-1.69866">
        <ele>18.4023438</ele>
        <time>2010-10-26T16:54:18Z</time>
      </trkpt>
      <trkpt lat="47.18711" lon="-1.69822">
        <ele>19.3637695</ele>
        <time>2010-10-26T16:54:31Z</time>
      </trkpt>
      <trkpt lat="47.18672" lon="-1.69786">
        <ele>21.286377</ele>
        <time>2010-10-26T16:54:44Z</time>
      </trkpt>
      <trkpt lat="47.18637" lon="-1.6973">
        <ele>21.7669678</ele>
        <time>2010-10-26T16:54:58Z</time>
      </trkpt>
      <trkpt lat="47.1861" lon="-1.69673">
        <ele>22.2475586</ele>
        <time>2010-10-26T16:55:10Z</time>
      </trkpt>
      <trkpt lat="47.18585" lon="-1.69611">
        <ele>25.6123047</ele>
        <time>2010-10-26T16:55:25Z</time>
      </trkpt>
      <trkpt lat="47.18543" lon="-1.69617">
        <ele>25.6123047</ele>
        <time>2010-10-26T16:55:40Z</time>
      </trkpt>
      <trkpt lat="47.18505" lon="-1.6966">
        <ele>24.1702881</ele>
        <time>2010-10-26T16:55:52Z</time>
      </trkpt>
      <trkpt lat="47.18469" lon="-1.69701">
        <ele>23.2089844</ele>
        <time>2010-10-26T16:56:01Z</time>
      </trkpt>
      <trkpt lat="47.18431" lon="-1.69742">
        <ele>22.2475586</ele>
        <time>2010-10-26T16:56:10Z</time>
      </trkpt>
      <trkpt lat="47.18388" lon="-1.69769">
        <ele>21.286377</ele>
        <time>2010-10-26T16:56:18Z</time>
      </trkpt>
      <trkpt lat="47.18337" lon="-1.69778">
        <ele>20.3249512</ele>
        <time>2010-10-26T16:56:27Z</time>
      </trkpt>
      <trkpt lat="47.18296" lon="-1.69807">
        <ele>20.8056641</ele>
        <time>2010-10-26T16:56:35Z</time>
      </trkpt>
      <trkpt lat="47.18268" lon="-1.69859">
        <ele>20.8056641</ele>
        <time>2010-10-26T16:56:43Z</time>
      </trkpt>
      <trkpt lat="47.18259" lon="-1.69931">
        <ele>20.3249512</ele>
        <time>2010-10-26T16:56:52Z</time>
      </trkpt>
      <trkpt lat="47.18251" lon="-1.69997">
        <ele>20.3249512</ele>
        <time>2010-10-26T16:57:02Z</time>
      </trkpt>
      <trkpt lat="47.18227" lon="-1.69939">
        <ele>21.7669678</ele>
        <time>2010-10-26T16:57:14Z</time>
      </trkpt>
      <trkpt lat="47.18207" lon="-1.69875">
        <ele>23.2089844</ele>
        <time>2010-10-26T16:57:22Z</time>
      </trkpt>
      <trkpt lat="47.18187" lon="-1.69809">
        <ele>25.1317139</ele>
        <time>2010-10-26T16:57:30Z</time>
      </trkpt>
      <trkpt lat="47.18171" lon="-1.69739">
        <ele>25.6123047</ele>
        <time>2010-10-26T16:57:38Z</time>
      </trkpt>
      <trkpt lat="47.18152" lon="-1.69674">
        <ele>26.5736084</ele>
        <time>2010-10-26T16:57:47Z</time>
      </trkpt>
      <trkpt lat="47.18133" lon="-1.69607">
        <ele>28.9769287</ele>
        <time>2010-10-26T16:57:56Z</time>
      </trkpt>
      <trkpt lat="47.18112" lon="-1.69545">
        <ele>33.7834473</ele>
        <time>2010-10-26T16:58:05Z</time>
      </trkpt>
      <trkpt lat="47.18094" lon="-1.6948">
        <ele>34.744873</ele>
        <time>2010-10-26T16:58:15Z</time>
      </trkpt>
      <trkpt lat="47.18078" lon="-1.69415">
        <ele>36.1867676</ele>
        <time>2010-10-26T16:58:35Z</time>
      </trkpt>
      <trkpt lat="47.18065" lon="-1.69349">
        <ele>33.7834473</ele>
        <time>2010-10-26T16:58:50Z</time>
      </trkpt>
      <trkpt lat="47.18053" lon="-1.69277">
        <ele>34.744873</ele>
        <time>2010-10-26T16:59:09Z</time>
      </trkpt>
      <trkpt lat="47.18085" lon="-1.69252">
        <ele>34.2641602</ele>
        <time>2010-10-26T16:59:27Z</time>
      </trkpt>
      <trkpt lat="47.18134" lon="-1.6925">
        <ele>34.744873</ele>
        <time>2010-10-26T16:59:40Z</time>
      </trkpt>
      <trkpt lat="47.18181" lon="-1.69251">
        <ele>33.3028564</ele>
        <time>2010-10-26T16:59:51Z</time>
      </trkpt>
      <trkpt lat="47.1823" lon="-1.69259">
        <ele>33.7834473</ele>
        <time>2010-10-26T17:00:01Z</time>
      </trkpt>
      <trkpt lat="47.18258" lon="-1.69229">
        <ele>33.3028564</ele>
        <time>2010-10-26T17:00:13Z</time>
      </trkpt>
      <trkpt lat="47.18218" lon="-1.69186">
        <ele>31.380127</ele>
        <time>2010-10-26T17:00:23Z</time>
      </trkpt>
      <trkpt lat="47.18182" lon="-1.69144">
        <ele>29.9381104</ele>
        <time>2010-10-26T17:00:31Z</time>
      </trkpt>
      <trkpt lat="47.18146" lon="-1.69093">
        <ele>28.0155029</ele>
        <time>2010-10-26T17:00:39Z</time>
      </trkpt>
      <trkpt lat="47.1813" lon="-1.69022">
        <ele>27.5349121</ele>
        <time>2010-10-26T17:00:47Z</time>
      </trkpt>
      <trkpt lat="47.18116" lon="-1.68952">
        <ele>29.4575195</ele>
        <time>2010-10-26T17:00:55Z</time>
      </trkpt>
      <trkpt lat="47.18099" lon="-1.68886">
        <ele>30.4188232</ele>
        <time>2010-10-26T17:01:04Z</time>
      </trkpt>
      <trkpt lat="47.18079" lon="-1.68822">
        <ele>30.4188232</ele>
        <time>2010-10-26T17:01:14Z</time>
      </trkpt>
      <trkpt lat="47.18054" lon="-1.6876">
        <ele>30.4188232</ele>
        <time>2010-10-26T17:01:24Z</time>
      </trkpt>
      <trkpt lat="47.1803" lon="-1.68701">
        <ele>30.8995361</ele>
        <time>2010-10-26T17:01:34Z</time>
      </trkpt>
      <trkpt lat="47.18004" lon="-1.68643">
        <ele>30.8995361</ele>
        <time>2010-10-26T17:01:44Z</time>
      </trkpt>
      <trkpt lat="47.17973" lon="-1.68589">
        <ele>30.8995361</ele>
        <time>2010-10-26T17:01:54Z</time>
      </trkpt>
      <trkpt lat="47.17944" lon="-1.68536">
        <ele>30.4188232</ele>
        <time>2010-10-26T17:02:03Z</time>
      </trkpt>
      <trkpt lat="47.17917" lon="-1.68483">
        <ele>30.4188232</ele>
        <time>2010-10-26T17:02:12Z</time>
      </trkpt>
      <trkpt lat="47.17894" lon="-1.68418">
        <ele>30.4188232</ele>
        <time>2010-10-26T17:02:22Z</time>
      </trkpt>
      <trkpt lat="47.17869" lon="-1.68361">
        <ele>30.4188232</ele>
        <time>2010-10-26T17:02:31Z</time>
      </trkpt>
      <trkpt lat="47.17827" lon="-1.68335">
        <ele>30.8995361</ele>
        <time>2010-10-26T17:02:41Z</time>
      </trkpt>
      <trkpt lat="47.1778" lon="-1.68336">
        <ele>33.7834473</ele>
        <time>2010-10-26T17:02:55Z</time>
      </trkpt>
      <trkpt lat="47.17736" lon="-1.68313">
        <ele>32.3415527</ele>
        <time>2010-10-26T17:03:10Z</time>
      </trkpt>
      <trkpt lat="47.17743" lon="-1.68244">
        <ele>32.3415527</ele>
        <time>2010-10-26T17:03:24Z</time>
      </trkpt>
      <trkpt lat="47.17741" lon="-1.68249">
        <ele>33.3028564</ele>
        <time>2010-10-26T17:03:57Z</time>
      </trkpt>
      <trkpt lat="47.17741" lon="-1.68252">
        <ele>32.3415527</ele>
        <time>2010-10-26T17:15:26Z</time>
      </trkpt>
      <trkpt lat="47.17757" lon="-1.68185">
        <ele>32.3415527</ele>
        <time>2010-10-26T17:15:43Z</time>
      </trkpt>
      <trkpt lat="47.1778" lon="-1.68124">
        <ele>30.4188232</ele>
        <time>2010-10-26T17:15:53Z</time>
      </trkpt>
      <trkpt lat="47.17736" lon="-1.68108">
        <ele>30.4188232</ele>
        <time>2010-10-26T17:16:02Z</time>
      </trkpt>
      <trkpt lat="47.177" lon="-1.68061">
        <ele>29.9381104</ele>
        <time>2010-10-26T17:16:11Z</time>
      </trkpt>
      <trkpt lat="47.1767" lon="-1.68006">
        <ele>30.8995361</ele>
        <time>2010-10-26T17:16:19Z</time>
      </trkpt>
      <trkpt lat="47.17627" lon="-1.67974">
        <ele>30.8995361</ele>
        <time>2010-10-26T17:16:28Z</time>
      </trkpt>
      <trkpt lat="47.17633" lon="-1.67913">
        <ele>31.8607178</ele>
        <time>2010-10-26T17:16:35Z</time>
      </trkpt>
      <trkpt lat="47.17629" lon="-1.67846">
        <ele>31.8607178</ele>
        <time>2010-10-26T17:16:42Z</time>
      </trkpt>
      <trkpt lat="47.17608" lon="-1.67782">
        <ele>31.8607178</ele>
        <time>2010-10-26T17:16:49Z</time>
      </trkpt>
      <trkpt lat="47.1759" lon="-1.67714">
        <ele>32.3415527</ele>
        <time>2010-10-26T17:16:59Z</time>
      </trkpt>
      <trkpt lat="47.17586" lon="-1.67649">
        <ele>33.7834473</ele>
        <time>2010-10-26T17:17:08Z</time>
      </trkpt>
      <trkpt lat="47.17627" lon="-1.67612">
        <ele>34.2641602</ele>
        <time>2010-10-26T17:17:17Z</time>
      </trkpt>
      <trkpt lat="47.17668" lon="-1.67575">
        <ele>34.2641602</ele>
        <time>2010-10-26T17:17:25Z</time>
      </trkpt>
      <trkpt lat="47.17712" lon="-1.67539">
        <ele>34.744873</ele>
        <time>2010-10-26T17:17:33Z</time>
      </trkpt>
      <trkpt lat="47.17758" lon="-1.67503">
        <ele>34.2641602</ele>
        <time>2010-10-26T17:17:41Z</time>
      </trkpt>
      <trkpt lat="47.17799" lon="-1.6747">
        <ele>34.2641602</ele>
        <time>2010-10-26T17:17:48Z</time>
      </trkpt>
      <trkpt lat="47.17842" lon="-1.67438">
        <ele>34.2641602</ele>
        <time>2010-10-26T17:17:55Z</time>
      </trkpt>
      <trkpt lat="47.17882" lon="-1.67408">
        <ele>34.2641602</ele>
        <time>2010-10-26T17:18:03Z</time>
      </trkpt>
      <trkpt lat="47.1787" lon="-1.67355">
        <ele>33.7834473</ele>
        <time>2010-10-26T17:18:15Z</time>
      </trkpt>
      <trkpt lat="47.17842" lon="-1.67301">
        <ele>33.7834473</ele>
        <time>2010-10-26T17:18:28Z</time>
      </trkpt>
      <trkpt lat="47.17813" lon="-1.67247">
        <ele>34.744873</ele>
        <time>2010-10-26T17:18:40Z</time>
      </trkpt>
      <trkpt lat="47.17783" lon="-1.67192">
        <ele>34.744873</ele>
        <time>2010-10-26T17:18:51Z</time>
      </trkpt>
      <trkpt lat="47.17752" lon="-1.67134">
        <ele>34.2641602</ele>
        <time>2010-10-26T17:19:01Z</time>
      </trkpt>
      <trkpt lat="47.17719" lon="-1.67076">
        <ele>34.2641602</ele>
        <time>2010-10-26T17:19:10Z</time>
      </trkpt>
      <trkpt lat="47.17688" lon="-1.67016">
        <ele>33.3028564</ele>
        <time>2010-10-26T17:19:18Z</time>
      </trkpt>
      <trkpt lat="47.17658" lon="-1.6696">
        <ele>32.8222656</ele>
        <time>2010-10-26T17:19:25Z</time>
      </trkpt>
      <trkpt lat="47.1763" lon="-1.66908">
        <ele>32.8222656</ele>
        <time>2010-10-26T17:19:31Z</time>
      </trkpt>
      <trkpt lat="47.17601" lon="-1.66855">
        <ele>32.8222656</ele>
        <time>2010-10-26T17:19:37Z</time>
      </trkpt>
      <trkpt lat="47.1757" lon="-1.66797">
        <ele>32.3415527</ele>
        <time>2010-10-26T17:19:44Z</time>
      </trkpt>
      <trkpt lat="47.17539" lon="-1.66739">
        <ele>32.8222656</ele>
        <time>2010-10-26T17:19:51Z</time>
      </trkpt>
      <trkpt lat="47.17508" lon="-1.6668">
        <ele>32.8222656</ele>
        <time>2010-10-26T17:19:58Z</time>
      </trkpt>
      <trkpt lat="47.17478" lon="-1.66624">
        <ele>32.8222656</ele>
        <time>2010-10-26T17:20:05Z</time>
      </trkpt>
      <trkpt lat="47.17448" lon="-1.66566">
        <ele>33.3028564</ele>
        <time>2010-10-26T17:20:13Z</time>
      </trkpt>
      <trkpt lat="47.17416" lon="-1.66506">
        <ele>33.3028564</ele>
        <time>2010-10-26T17:20:22Z</time>
      </trkpt>
      <trkpt lat="47.17383" lon="-1.66446">
        <ele>32.8222656</ele>
        <time>2010-10-26T17:20:30Z</time>
      </trkpt>
      <trkpt lat="47.17353" lon="-1.66389">
        <ele>32.3415527</ele>
        <time>2010-10-26T17:20:38Z</time>
      </trkpt>
      <trkpt lat="47.17324" lon="-1.66331">
        <ele>32.3415527</ele>
        <time>2010-10-26T17:20:46Z</time>
      </trkpt>
      <trkpt lat="47.17293" lon="-1.66276">
        <ele>32.3415527</ele>
        <time>2010-10-26T17:20:54Z</time>
      </trkpt>
      <trkpt lat="47.17261" lon="-1.66222">
        <ele>32.3415527</ele>
        <time>2010-10-26T17:21:04Z</time>
      </trkpt>
      <trkpt lat="47.17232" lon="-1.66161">
        <ele>33.3028564</ele>
        <time>2010-10-26T17:21:14Z</time>
      </trkpt>
      <trkpt lat="47.17213" lon="-1.66094">
        <ele>32.8222656</ele>
        <time>2010-10-26T17:21:27Z</time>
      </trkpt>
      <trkpt lat="47.17198" lon="-1.66028">
        <ele>31.380127</ele>
        <time>2010-10-26T17:21:43Z</time>
      </trkpt>
      <trkpt lat="47.17186" lon="-1.65964">
        <ele>31.380127</ele>
        <time>2010-10-26T17:21:57Z</time>
      </trkpt>
      <trkpt lat="47.17174" lon="-1.65901">
        <ele>30.8995361</ele>
        <time>2010-10-26T17:22:09Z</time>
      </trkpt>
      <trkpt lat="47.17161" lon="-1.65829">
        <ele>31.380127</ele>
        <time>2010-10-26T17:22:19Z</time>
      </trkpt>
      <trkpt lat="47.17153" lon="-1.6576">
        <ele>31.380127</ele>
        <time>2010-10-26T17:22:27Z</time>
      </trkpt>
      <trkpt lat="47.17148" lon="-1.65688">
        <ele>30.8995361</ele>
        <time>2010-10-26T17:22:35Z</time>
      </trkpt>
      <trkpt lat="47.17147" lon="-1.65621">
        <ele>30.8995361</ele>
        <time>2010-10-26T17:22:42Z</time>
      </trkpt>
      <trkpt lat="47.17151" lon="-1.6555">
        <ele>30.4188232</ele>
        <time>2010-10-26T17:22:50Z</time>
      </trkpt>
      <trkpt lat="47.17158" lon="-1.65481">
        <ele>30.4188232</ele>
        <time>2010-10-26T17:22:58Z</time>
      </trkpt>
      <trkpt lat="47.17166" lon="-1.6541">
        <ele>30.4188232</ele>
        <time>2010-10-26T17:23:06Z</time>
      </trkpt>
      <trkpt lat="47.17173" lon="-1.6534">
        <ele>29.9381104</ele>
        <time>2010-10-26T17:23:14Z</time>
      </trkpt>
      <trkpt lat="47.17142" lon="-1.65311">
        <ele>30.8995361</ele>
        <time>2010-10-26T17:23:23Z</time>
      </trkpt>
      <trkpt lat="47.17103" lon="-1.65324">
        <ele>31.380127</ele>
        <time>2010-10-26T17:23:31Z</time>
      </trkpt>
      <trkpt lat="47.17111" lon="-1.65254">
        <ele>30.4188232</ele>
        <time>2010-10-26T17:23:39Z</time>
      </trkpt>
      <trkpt lat="47.17109" lon="-1.65185">
        <ele>28.4962158</ele>
        <time>2010-10-26T17:23:46Z</time>
      </trkpt>
      <trkpt lat="47.17105" lon="-1.65116">
        <ele>28.0155029</ele>
        <time>2010-10-26T17:23:53Z</time>
      </trkpt>
      <trkpt lat="47.171" lon="-1.65045">
        <ele>28.0155029</ele>
        <time>2010-10-26T17:24:01Z</time>
      </trkpt>
      <trkpt lat="47.17095" lon="-1.64973">
        <ele>27.5349121</ele>
        <time>2010-10-26T17:24:09Z</time>
      </trkpt>
      <trkpt lat="47.17091" lon="-1.64904">
        <ele>27.0543213</ele>
        <time>2010-10-26T17:24:18Z</time>
      </trkpt>
      <trkpt lat="47.17086" lon="-1.64836">
        <ele>27.5349121</ele>
        <time>2010-10-26T17:24:28Z</time>
      </trkpt>
      <trkpt lat="47.17081" lon="-1.64767">
        <ele>28.0155029</ele>
        <time>2010-10-26T17:24:38Z</time>
      </trkpt>
      <trkpt lat="47.17078" lon="-1.64699">
        <ele>28.0155029</ele>
        <time>2010-10-26T17:24:47Z</time>
      </trkpt>
      <trkpt lat="47.17077" lon="-1.64629">
        <ele>28.0155029</ele>
        <time>2010-10-26T17:24:56Z</time>
      </trkpt>
      <trkpt lat="47.17078" lon="-1.64561">
        <ele>28.9769287</ele>
        <time>2010-10-26T17:25:05Z</time>
      </trkpt>
      <trkpt lat="47.17081" lon="-1.64493">
        <ele>29.9381104</ele>
        <time>2010-10-26T17:25:14Z</time>
      </trkpt>
      <trkpt lat="47.17084" lon="-1.64423">
        <ele>30.4188232</ele>
        <time>2010-10-26T17:25:24Z</time>
      </trkpt>
      <trkpt lat="47.17091" lon="-1.6435">
        <ele>30.8995361</ele>
        <time>2010-10-26T17:25:34Z</time>
      </trkpt>
      <trkpt lat="47.17098" lon="-1.64283">
        <ele>30.8995361</ele>
        <time>2010-10-26T17:25:44Z</time>
      </trkpt>
      <trkpt lat="47.17104" lon="-1.64217">
        <ele>30.4188232</ele>
        <time>2010-10-26T17:25:53Z</time>
      </trkpt>
      <trkpt lat="47.17112" lon="-1.64146">
        <ele>29.9381104</ele>
        <time>2010-10-26T17:26:02Z</time>
      </trkpt>
      <trkpt lat="47.17119" lon="-1.64076">
        <ele>29.9381104</ele>
        <time>2010-10-26T17:26:11Z</time>
      </trkpt>
      <trkpt lat="47.17127" lon="-1.64006">
        <ele>29.4575195</ele>
        <time>2010-10-26T17:26:20Z</time>
      </trkpt>
      <trkpt lat="47.17135" lon="-1.63941">
        <ele>29.4575195</ele>
        <time>2010-10-26T17:26:29Z</time>
      </trkpt>
      <trkpt lat="47.17143" lon="-1.63868">
        <ele>28.9769287</ele>
        <time>2010-10-26T17:26:39Z</time>
      </trkpt>
      <trkpt lat="47.1715" lon="-1.63798">
        <ele>28.9769287</ele>
        <time>2010-10-26T17:26:50Z</time>
      </trkpt>
      <trkpt lat="47.17157" lon="-1.63729">
        <ele>28.4962158</ele>
        <time>2010-10-26T17:27:02Z</time>
      </trkpt>
      <trkpt lat="47.17165" lon="-1.63657">
        <ele>28.4962158</ele>
        <time>2010-10-26T17:27:13Z</time>
      </trkpt>
      <trkpt lat="47.17172" lon="-1.63589">
        <ele>27.5349121</ele>
        <time>2010-10-26T17:27:22Z</time>
      </trkpt>
      <trkpt lat="47.17181" lon="-1.63515">
        <ele>26.5736084</ele>
        <time>2010-10-26T17:27:31Z</time>
      </trkpt>
      <trkpt lat="47.17191" lon="-1.63447">
        <ele>25.6123047</ele>
        <time>2010-10-26T17:27:39Z</time>
      </trkpt>
      <trkpt lat="47.17202" lon="-1.63379">
        <ele>25.1317139</ele>
        <time>2010-10-26T17:27:46Z</time>
      </trkpt>
      <trkpt lat="47.17215" lon="-1.63313">
        <ele>24.1702881</ele>
        <time>2010-10-26T17:27:53Z</time>
      </trkpt>
      <trkpt lat="47.17229" lon="-1.63241">
        <ele>23.6895752</ele>
        <time>2010-10-26T17:28:01Z</time>
      </trkpt>
      <trkpt lat="47.17246" lon="-1.6317">
        <ele>23.2089844</ele>
        <time>2010-10-26T17:28:09Z</time>
      </trkpt>
      <trkpt lat="47.17262" lon="-1.63101">
        <ele>23.2089844</ele>
        <time>2010-10-26T17:28:17Z</time>
      </trkpt>
      <trkpt lat="47.1728" lon="-1.63032">
        <ele>22.7282715</ele>
        <time>2010-10-26T17:28:25Z</time>
      </trkpt>
      <trkpt lat="47.17299" lon="-1.62965">
        <ele>22.2475586</ele>
        <time>2010-10-26T17:28:33Z</time>
      </trkpt>
      <trkpt lat="47.1732" lon="-1.62906">
        <ele>21.286377</ele>
        <time>2010-10-26T17:28:41Z</time>
      </trkpt>
      <trkpt lat="47.1736" lon="-1.62892">
        <ele>19.3637695</ele>
        <time>2010-10-26T17:28:50Z</time>
      </trkpt>
      <trkpt lat="47.17401" lon="-1.62854">
        <ele>16.4797363</ele>
        <time>2010-10-26T17:28:56Z</time>
      </trkpt>
      <trkpt lat="47.17445" lon="-1.62813">
        <ele>14.5570068</ele>
        <time>2010-10-26T17:29:02Z</time>
      </trkpt>
      <trkpt lat="47.1749" lon="-1.6277">
        <ele>12.6343994</ele>
        <time>2010-10-26T17:29:08Z</time>
      </trkpt>
      <trkpt lat="47.17533" lon="-1.62731">
        <ele>12.6343994</ele>
        <time>2010-10-26T17:29:14Z</time>
      </trkpt>
      <trkpt lat="47.17573" lon="-1.62695">
        <ele>13.5958252</ele>
        <time>2010-10-26T17:29:20Z</time>
      </trkpt>
      <trkpt lat="47.17615" lon="-1.62655">
        <ele>16.4797363</ele>
        <time>2010-10-26T17:29:27Z</time>
      </trkpt>
      <trkpt lat="47.17655" lon="-1.62615">
        <ele>18.8830566</ele>
        <time>2010-10-26T17:29:34Z</time>
      </trkpt>
      <trkpt lat="47.17694" lon="-1.62575">
        <ele>21.286377</ele>
        <time>2010-10-26T17:29:43Z</time>
      </trkpt>
      <trkpt lat="47.17715" lon="-1.62519">
        <ele>23.2089844</ele>
        <time>2010-10-26T17:29:54Z</time>
      </trkpt>
      <trkpt lat="47.17723" lon="-1.62453">
        <ele>24.651001</ele>
        <time>2010-10-26T17:30:05Z</time>
      </trkpt>
      <trkpt lat="47.17726" lon="-1.62387">
        <ele>24.1702881</ele>
        <time>2010-10-26T17:30:15Z</time>
      </trkpt>
      <trkpt lat="47.17722" lon="-1.62318">
        <ele>23.6895752</ele>
        <time>2010-10-26T17:30:26Z</time>
      </trkpt>
      <trkpt lat="47.17715" lon="-1.62253">
        <ele>23.6895752</ele>
        <time>2010-10-26T17:30:41Z</time>
      </trkpt>
      <trkpt lat="47.17722" lon="-1.62221">
        <ele>27.0543213</ele>
        <time>2010-10-26T17:33:26Z</time>
      </trkpt>
      <trkpt lat="47.17715" lon="-1.62262">
        <ele>26.0928955</ele>
        <time>2010-10-26T17:33:39Z</time>
      </trkpt>
    </trkseg>
  </trk>
</gpx>